Time;durP1;ratioP1;P1;durP2;ratioP2;P2;SDS_P1;SDS_P2;PMS_P1;PMS_P2;Temp;Humidity;BMP_temperature;BMP_pressure;BME280_temperature;BME280_humidity;BME280_pressure;Samples;Min_cycle;Max_cycle;Signal;HPM_P1;HPM_P2
2023/05/19 00:01:59;;;;;;;;;;;;;;;13.59;78.02;95429.13;5074427;28;1028;-53
2023/05/19 00:04:26;;;;;;;;;;;;;;;13.63;78.12;95425.06;5073991;28;1033;-54
2023/05/19 00:06:52;;;;;;;;;;;;;;;13.67;77.60;95421.84;5074027;28;1026;-54
2023/05/19 00:09:19;;;;;;;;;;;;;;;13.62;76.96;95418.88;5073933;28;1543;-54
2023/05/19 00:11:45;;;;;;;;;;;;;;;13.63;78.12;95415.16;5073922;28;1050;-54
2023/05/19 00:14:11;;;;;;;;;;;;;;;13.55;78.55;95417.88;5073765;28;1297;-54
2023/05/19 00:16:37;;;;;;;;;;;;;;;13.52;79.39;95417.38;5073991;28;1985;-54
2023/05/19 00:19:04;;;;;;;;;;;;;;;13.59;77.64;95413.00;5073812;28;1171;-54
2023/05/19 00:21:30;;;;;;;;;;;;;;;13.64;77.75;95421.38;5073688;28;1038;-54
2023/05/19 00:23:57;;;;;;;;;;;;;;;13.64;77.72;95411.47;5073739;28;1040;-54
2023/05/19 00:26:23;;;;;;;;;;;;;;;13.67;77.26;95421.03;5073688;28;1056;-54
2023/05/19 00:28:49;;;;;;;;;;;;;;;13.71;77.72;95422.34;5073543;28;958;-54
2023/05/19 00:31:15;;;;;;;;;;;;;;;13.60;79.31;95411.97;5073926;28;961;-54
2023/05/19 00:33:41;;;;;;;;;;;;;;;13.61;79.31;95417.19;5073872;28;1025;-54
2023/05/19 00:36:08;;;;;;;;;;;;;;;13.60;80.49;95417.34;5073644;28;1910;-54
2023/05/19 00:38:34;;;;;;;;;;;;;;;13.55;80.99;95417.88;5073425;28;1057;-54
2023/05/19 00:41:01;;;;;;;;;;;;;;;13.37;83.08;95415.41;5073432;28;1029;-54
2023/05/19 00:43:29;;;;;;;;;;;;;;;13.20;86.98;95416.41;5073380;28;1261;-54
2023/05/19 00:45:55;;;;;;;;;;;;;;;13.12;87.38;95411.91;5073726;28;1028;-54
2023/05/19 00:48:21;;;;;;;;;;;;;;;12.94;89.45;95413.94;5073436;28;1037;-54
2023/05/19 00:50:49;;;;;;;;;;;;;;;12.84;90.07;95408.75;5073351;28;1089;-54
2023/05/19 00:53:16;;;;;;;;;;;;;;;12.81;89.87;95403.72;5073558;28;1038;-54
2023/05/19 00:55:43;;;;;;;;;;;;;;;12.80;90.23;95400.19;5073276;28;1906;-54
2023/05/19 00:58:10;;;;;;;;;;;;;;;12.86;89.13;95396.84;5055462;28;997;-54
2023/05/19 01:00:37;;;;;;;;;;;;;;;12.89;89.89;95398.34;5073579;28;965;-53
2023/05/19 01:03:09;;;;;;;;;;;;;;;12.78;90.35;95404.06;5073231;28;1274;-54
2023/05/19 01:05:43;;;;;;;;;;;;;;;12.79;90.66;95405.75;5073249;28;1042;-54
2023/05/19 01:08:09;;;;;;;;;;;;;;;12.64;93.69;95398.38;5073525;28;1343;-54
2023/05/19 01:10:35;;;;;;;;;;;;;;;12.67;92.32;95407.91;5073220;28;1009;-54
2023/05/19 01:13:02;;;;;;;;;;;;;;;12.59;93.95;95403.38;5073436;28;965;-54
2023/05/19 01:15:28;;;;;;;;;;;;;;;12.57;94.33;95396.53;5072957;28;1992;-54
2023/05/19 01:17:54;;;;;;;;;;;;;;;12.55;93.89;95409.25;5075688;28;1032;-54
2023/05/19 01:20:26;;;;;;;;;;;;;;;12.54;94.62;95408.44;5077249;28;1120;-55
2023/05/19 01:22:55;;;;;;;;;;;;;;;12.56;94.91;95397.50;5077142;28;1066;-55
2023/05/19 01:25:30;;;;;;;;;;;;;;;12.64;93.27;95398.38;5077439;28;949;-55
2023/05/19 01:28:19;;;;;;;;;;;;;;;12.67;93.33;95397.19;5077372;28;966;-53
2023/05/19 01:30:53;;;;;;;;;;;;;;;12.63;93.75;95398.53;5064067;28;1158;-53
2023/05/19 01:33:20;;;;;;;;;;;;;;;12.62;92.37;95403.06;5076882;28;978;-53
2023/05/19 01:35:47;;;;;;;;;;;;;;;12.68;91.58;95402.38;5077184;28;1989;-53
2023/05/19 01:38:15;;;;;;;;;;;;;;;12.72;91.00;95399.38;5077167;28;953;-53
2023/05/19 01:40:42;;;;;;;;;;;;;;;12.70;90.21;95400.38;5077015;28;1233;-53
2023/05/19 01:43:10;;;;;;;;;;;;;;;12.66;89.99;95396.34;5076610;28;1867;-53
2023/05/19 01:45:37;;;;;;;;;;;;;;;12.64;91.16;95395.69;5077072;28;1025;-53
2023/05/19 01:48:03;;;;;;;;;;;;;;;12.49;92.67;95395.50;5076722;28;1101;-53
2023/05/19 01:50:30;;;;;;;;;;;;;;;12.15;94.36;95389.44;5076572;28;1105;-53
2023/05/19 01:52:56;;;;;;;;;;;;;;;12.02;95.42;95397.97;5076613;28;1014;-53
2023/05/19 01:55:22;;;;;;;;;;;;;;;12.08;95.24;95391.94;5076714;28;1997;-53
2023/05/19 01:57:57;;;;;;;;;;;;;;;12.15;94.98;95392.97;5076775;28;985;-53
2023/05/19 02:00:32;;;;;;;;;;;;;;;12.27;94.53;95388.09;5076382;28;1088;-53
2023/05/19 02:03:21;;;;;;;;;;;;;;;12.15;94.37;95387.59;5076411;28;1050;-53
2023/05/19 02:05:56;;;;;;;;;;;;;;;12.09;95.10;95388.25;5063539;28;1860;-53
2023/05/19 02:08:25;;;;;;;;;;;;;;;12.11;95.43;95396.97;5076542;28;1546;-53
2023/05/19 02:10:59;;;;;;;;;;;;;;;12.16;94.23;95391.97;5076237;28;1032;-53
2023/05/19 02:13:28;;;;;;;;;;;;;;;12.17;94.18;95382.91;5076448;28;1035;-53
2023/05/19 02:15:56;;;;;;;;;;;;;;;12.19;93.72;95388.09;5076091;28;1930;-53
2023/05/19 02:18:23;;;;;;;;;;;;;;;12.16;93.75;95394.66;5076033;28;1097;-53
2023/05/19 02:20:49;;;;;;;;;;;;;;;12.15;93.72;95392.97;5076427;28;1030;-52
2023/05/19 02:23:16;;;;;;;;;;;;;;;11.96;94.02;95395.94;5076288;28;970;-53
2023/05/19 02:25:42;;;;;;;;;;;;;;;11.57;95.91;95389.22;5075886;28;1199;-53
2023/05/19 02:28:08;;;;;;;;;;;;;;;11.61;95.79;95385.25;5075727;28;1046;-53
2023/05/19 02:30:34;;;;;;;;;;;;;;;11.72;95.67;95390.31;5075880;28;1993;-53
2023/05/19 02:33:00;;;;;;;;;;;;;;;11.85;95.00;95397.88;5075901;28;1029;-53
2023/05/19 02:35:26;;;;;;;;;;;;;;;11.82;94.84;95400.88;5075843;28;1980;-54
2023/05/19 02:37:52;;;;;;;;;;;;;;;11.57;95.12;95393.75;5075929;28;977;-53
2023/05/19 02:40:19;;;;;;;;;;;;;;;11.24;96.75;95398.97;5075635;28;1036;-53
2023/05/19 02:42:45;;;;;;;;;;;;;;;11.17;96.55;95397.91;5075724;28;1461;-54
2023/05/19 02:45:11;;;;;;;;;;;;;;;11.23;96.73;95397.28;5075840;28;1020;-53
2023/05/19 02:47:37;;;;;;;;;;;;;;;11.12;97.41;95398.41;5075939;28;1044;-53
2023/05/19 02:50:04;;;;;;;;;;;;;;;11.12;97.91;95396.56;5075550;28;1034;-53
2023/05/19 02:52:30;;;;;;;;;;;;;;;11.21;97.10;95405.47;5075436;28;1053;-53
2023/05/19 02:54:56;;;;;;;;;;;;;;;11.08;97.28;95397.88;5075477;28;1909;-53
2023/05/19 02:57:22;;;;;;;;;;;;;;;11.05;97.31;95394.69;5075604;28;942;-53
2023/05/19 02:59:48;;;;;;;;;;;;;;;11.00;97.20;95407.69;5075722;28;1017;-53
2023/05/19 03:02:15;;;;;;;;;;;;;;;10.99;97.17;95401.50;5075555;28;1030;-53
2023/05/19 03:04:41;;;;;;;;;;;;;;;11.09;97.25;95410.25;5075597;28;994;-54
2023/05/19 03:07:17;;;;;;;;;;;;;;;11.08;96.59;95416.59;5075331;28;1053;-53
2023/05/19 03:09:43;;;;;;;;;;;;;;;11.06;96.88;95413.25;5075029;28;1594;-54
2023/05/19 03:12:09;;;;;;;;;;;;;;;11.03;97.02;95410.88;5075327;28;1086;-54
2023/05/19 03:14:39;;;;;;;;;;;;;;;11.02;96.49;95419.91;5075393;28;1036;-54
2023/05/19 03:17:08;;;;;;;;;;;;;;;10.85;95.91;95418.97;5075299;28;1910;-54
2023/05/19 03:19:35;;;;;;;;;;;;;;;10.87;96.53;95416.97;5075247;28;1033;-53
2023/05/19 03:22:01;;;;;;;;;;;;;;;10.90;96.31;95419.31;5075006;28;1059;-53
2023/05/19 03:24:27;;;;;;;;;;;;;;;10.72;96.68;95421.22;5075114;28;1019;-54
2023/05/19 03:26:53;;;;;;;;;;;;;;;10.57;96.68;95428.94;5074963;28;1134;-54
2023/05/19 03:29:19;;;;;;;;;;;;;;;10.50;97.54;95427.88;5074668;28;1038;-53
2023/05/19 03:31:45;;;;;;;;;;;;;;;10.60;97.04;95428.63;5074783;28;1033;-53
2023/05/19 03:34:11;;;;;;;;;;;;;;;10.66;96.66;95422.66;5074701;28;958;-54
2023/05/19 03:36:40;;;;;;;;;;;;;;;10.81;96.27;95425.59;5074621;28;2017;-54
2023/05/19 03:39:06;;;;;;;;;;;;;;;10.80;95.56;95423.09;5074632;28;1049;-54
2023/05/19 03:41:32;;;;;;;;;;;;;;;10.55;96.04;95422.91;5056517;28;1044;-54
2023/05/19 03:43:58;;;;;;;;;;;;;;;10.52;96.95;95428.56;5074477;28;1111;-54
2023/05/19 03:46:24;;;;;;;;;;;;;;;10.74;96.58;95430.75;5074511;28;969;-54
2023/05/19 03:48:50;;;;;;;;;;;;;;;10.84;96.92;95429.81;5074418;28;1081;-53
2023/05/19 03:51:16;;;;;;;;;;;;;;;10.93;96.84;95435.06;5074309;28;1009;-53
2023/05/19 03:53:44;;;;;;;;;;;;;;;11.02;96.40;95438.66;5074294;28;1053;-54
2023/05/19 03:56:13;;;;;;;;;;;;;;;11.09;95.86;95439.69;5074243;28;1914;-53
2023/05/19 03:58:43;;;;;;;;;;;;;;;11.14;95.39;95440.06;5074334;28;1013;-53
2023/05/19 04:01:10;;;;;;;;;;;;;;;11.20;95.42;95443.09;5074567;28;969;-54
2023/05/19 04:03:36;;;;;;;;;;;;;;;11.37;95.16;95442.19;5074199;28;994;-54
2023/05/19 04:06:02;;;;;;;;;;;;;;;11.68;92.91;95431.78;5074338;28;1037;-54
2023/05/19 04:08:28;;;;;;;;;;;;;;;12.01;90.23;95439.13;5074196;28;1522;-53
2023/05/19 04:10:54;;;;;;;;;;;;;;;12.02;90.03;95438.16;5074231;28;1037;-53
2023/05/19 04:13:20;;;;;;;;;;;;;;;12.15;89.95;95438.53;5074063;28;1040;-54
2023/05/19 04:15:46;;;;;;;;;;;;;;;12.36;88.42;95440.75;5074089;28;1996;-54
2023/05/19 04:18:12;;;;;;;;;;;;;;;12.53;89.11;95440.78;5073826;28;1064;-54
2023/05/19 04:20:38;;;;;;;;;;;;;;;12.77;86.34;95443.47;5073716;28;953;-54
2023/05/19 04:23:04;;;;;;;;;;;;;;;12.89;87.44;95444.81;5074008;28;985;-54
2023/05/19 04:25:30;;;;;;;;;;;;;;;13.19;85.13;95449.66;5073787;28;1014;-54
2023/05/19 04:27:56;;;;;;;;;;;;;;;13.39;83.76;95445.63;5073669;28;930;-54
2023/05/19 04:30:23;;;;;;;;;;;;;;;13.42;83.80;95445.28;5073819;28;1029;-54
2023/05/19 04:32:49;;;;;;;;;;;;;;;13.50;84.40;95446.28;5073687;28;985;-54
2023/05/19 04:35:18;;;;;;;;;;;;;;;13.55;86.00;95450.13;5073485;28;1996;-54
2023/05/19 04:37:45;;;;;;;;;;;;;;;13.66;84.79;95449.75;5073831;28;1083;-54
2023/05/19 04:40:14;;;;;;;;;;;;;;;13.84;83.27;95448.66;5055737;28;1038;-55
2023/05/19 04:42:41;;;;;;;;;;;;;;;13.85;83.26;95448.50;5073259;28;1132;-55
2023/05/19 04:45:08;;;;;;;;;;;;;;;14.11;83.84;95451.91;5073599;28;1073;-54
2023/05/19 04:47:37;;;;;;;;;;;;;;;14.51;80.29;95456.22;5073428;28;1017;-54
2023/05/19 04:50:03;;;;;;;;;;;;;;;14.58;81.23;95454.53;5073325;28;1101;-54
2023/05/19 04:52:29;;;;;;;;;;;;;;;14.84;81.49;95453.34;5073432;28;1052;-55
2023/05/19 04:54:55;;;;;;;;;;;;;;;15.09;79.64;95458.53;5073252;28;1914;-53
2023/05/19 04:57:21;;;;;;;;;;;;;;;15.28;79.90;95454.50;5073451;28;1039;-54
2023/05/19 04:59:48;;;;;;;;;;;;;;;15.39;79.32;95456.75;5073366;28;962;-54
2023/05/19 05:02:14;;;;;;;;;;;;;;;15.51;78.94;95457.13;5073433;28;1023;-54
2023/05/19 05:04:42;;;;;;;;;;;;;;;15.68;76.41;95464.00;5073111;28;1033;-54
2023/05/19 05:07:09;;;;;;;;;;;;;;;15.85;75.20;95451.22;5055727;28;1041;-54
2023/05/19 05:09:35;;;;;;;;;;;;;;;15.86;75.06;95465.53;5072979;28;1240;-54
2023/05/19 05:12:02;;;;;;;;;;;;;;;15.92;76.53;95462.94;5073230;28;1021;-54
2023/05/19 05:14:28;;;;;;;;;;;;;;;16.03;76.83;95461.63;5073105;28;982;-54
2023/05/19 05:16:54;;;;;;;;;;;;;;;16.10;76.50;95459.84;5055313;28;1902;-54
2023/05/19 05:19:21;;;;;;;;;;;;;;;16.41;76.05;95464.19;5073245;28;1052;-54
2023/05/19 05:21:47;;;;;;;;;;;;;;;16.89;73.86;95464.50;5073332;28;985;-54
2023/05/19 05:24:14;;;;;;;;;;;;;;;16.93;71.63;95464.97;5072874;28;1105;-54
2023/05/19 05:26:40;;;;;;;;;;;;;;;16.76;73.08;95462.47;5073321;28;1033;-54
2023/05/19 05:29:07;;;;;;;;;;;;;;;16.93;72.36;95463.09;5073241;28;982;-54
2023/05/19 05:31:33;;;;;;;;;;;;;;;17.13;70.81;95467.84;5072848;28;1042;-54
2023/05/19 05:34:00;;;;;;;;;;;;;;;16.98;71.18;95466.06;5055095;28;1054;-54
2023/05/19 05:36:26;;;;;;;;;;;;;;;17.28;70.49;95465.91;5073017;28;1984;-54
2023/05/19 05:38:52;;;;;;;;;;;;;;;17.42;70.93;95474.97;5073191;28;1341;-54
2023/05/19 05:41:18;;;;;;;;;;;;;;;17.33;70.74;95459.91;5072877;28;1049;-54
2023/05/19 05:43:44;;;;;;;;;;;;;;;17.53;70.04;95473.59;5072753;28;1081;-55
2023/05/19 05:46:10;;;;;;;;;;;;;;;17.28;71.98;95475.88;5072675;28;1022;-55
2023/05/19 05:48:37;;;;;;;;;;;;;;;17.39;70.26;95482.63;5073029;28;1045;-55
2023/05/19 05:51:05;;;;;;;;;;;;;;;17.51;70.27;95487.31;5072918;28;974;-55
2023/05/19 05:53:35;;;;;;;;;;;;;;;17.85;69.34;95487.56;5055149;28;1247;-55
2023/05/19 05:56:02;;;;;;;;;;;;;;;18.08;67.58;95492.69;5072850;28;1910;-55
2023/05/19 05:58:28;;;;;;;;;;;;;;;18.24;69.22;95500.47;5072676;28;1120;-55
2023/05/19 06:00:56;;;;;;;;;;;;;;;18.49;67.83;95495.38;5072726;28;1018;-55
2023/05/19 06:03:23;;;;;;;;;;;;;;;18.66;67.47;95495.03;5074077;28;1034;-56
2023/05/19 06:05:49;;;;;;;;;;;;;;;18.89;67.31;95483.88;5076400;28;1057;-56
2023/05/19 06:08:16;;;;;;;;;;;;;;;19.16;63.81;95494.78;5076399;28;1550;-54
2023/05/19 06:10:42;;;;;;;;;;;;;;;18.92;64.89;95487.03;5076449;28;1012;-54
2023/05/19 06:13:08;;;;;;;;;;;;;;;18.73;65.68;95501.31;5076543;28;1065;-54
2023/05/19 06:15:35;;;;;;;;;;;;;;;18.77;65.57;95505.28;5076424;28;1914;-54
2023/05/19 06:18:01;;;;;;;;;;;;;;;19.18;65.46;95493.53;5076498;28;1040;-54
2023/05/19 06:20:27;;;;;;;;;;;;;;;19.30;64.81;95500.00;5076285;28;1028;-54
2023/05/19 06:22:53;;;;;;;;;;;;;;;19.59;63.49;95497.09;5076542;28;1017;-54
2023/05/19 06:25:19;;;;;;;;;;;;;;;19.80;63.91;95493.38;5075998;28;1045;-54
2023/05/19 06:27:45;;;;;;;;;;;;;;;19.90;61.93;95491.06;5075958;28;1049;-55
2023/05/19 06:30:12;;;;;;;;;;;;;;;19.96;59.90;95490.22;5075877;28;1042;-55
2023/05/19 06:32:38;;;;;;;;;;;;;;;20.19;60.48;95489.75;5076240;28;1075;-56
2023/05/19 06:35:04;;;;;;;;;;;;;;;20.29;57.45;95500.16;5058308;28;1909;-55
2023/05/19 06:37:30;;;;;;;;;;;;;;;20.42;57.58;95494.69;5058154;28;1026;-55
2023/05/19 06:39:57;;;;;;;;;;;;;;;20.60;60.24;95493.19;5058012;28;1050;-54
2023/05/19 06:42:24;;;;;;;;;;;;;;;20.61;55.50;95497.56;5075705;28;1198;-55
2023/05/19 06:44:51;;;;;;;;;;;;;;;20.75;56.26;95496.44;5075560;28;1073;-55
2023/05/19 06:47:17;;;;;;;;;;;;;;;20.82;56.88;95493.72;5075513;28;1085;-55
2023/05/19 06:49:44;;;;;;;;;;;;;;;20.81;55.32;95492.91;5075579;28;1194;-55
2023/05/19 06:52:10;;;;;;;;;;;;;;;21.07;54.97;95499.22;5075416;28;1058;-55
2023/05/19 06:54:36;;;;;;;;;;;;;;;21.32;54.82;95498.44;5075494;28;1212;-54
2023/05/19 06:57:03;;;;;;;;;;;;;;;21.37;55.52;95506.78;5075411;28;1989;-54
2023/05/19 06:59:29;;;;;;;;;;;;;;;21.05;54.80;95494.00;5075002;28;1155;-55
2023/05/19 07:01:55;;;;;;;;;;;;;;;21.21;55.52;95498.09;5057963;28;1006;-55
2023/05/19 07:04:21;;;;;;;;;;;;;;;21.08;52.42;95498.19;5075179;28;1635;-55
2023/05/19 07:06:49;;;;;;;;;;;;;;;21.00;54.52;95490.25;5075293;28;1037;-54
2023/05/19 07:09:15;;;;;;;;;;;;;;;21.31;54.71;95500.31;5074922;28;1563;-54
2023/05/19 07:11:41;;;;;;;;;;;;;;;21.52;51.96;95499.16;5075470;28;1079;-55
2023/05/19 07:14:07;;;;;;;;;;;;;;;21.72;52.93;95492.72;5074754;28;1047;-54
2023/05/19 07:16:34;;;;;;;;;;;;;;;21.84;52.76;95488.22;5056680;28;1909;-54
2023/05/19 07:19:00;;;;;;;;;;;;;;;21.93;51.83;95491.47;5075290;28;1040;-54
2023/05/19 07:21:26;;;;;;;;;;;;;;;22.11;51.62;95494.22;5074908;28;1591;-55
2023/05/19 07:23:52;;;;;;;;;;;;;;;22.01;51.24;95502.91;5075002;28;1045;-55
2023/05/19 07:26:18;;;;;;;;;;;;;;;21.86;53.13;95491.56;5074806;28;1121;-55
2023/05/19 07:28:44;;;;;;;;;;;;;;;21.66;49.19;95515.38;5074794;28;1062;-55
2023/05/19 07:31:10;;;;;;;;;;;;;;;21.62;53.00;95499.47;5056972;28;1038;-55
2023/05/19 07:33:36;;;;;;;;;;;;;;;21.19;52.85;95499.34;5057071;28;1527;-55
2023/05/19 07:36:03;;;;;;;;;;;;;;;21.58;55.29;95490.09;5057088;28;1910;-55
2023/05/19 07:38:30;;;;;;;;;;;;;;;21.97;52.88;95496.25;5074813;28;1025;-54
2023/05/19 07:40:56;;;;;;;;;;;;;;;22.11;53.30;95499.69;5074835;28;949;-55
2023/05/19 07:43:22;;;;;;;;;;;;;;;21.90;52.31;95500.09;5056520;28;1322;-56
2023/05/19 07:45:48;;;;;;;;;;;;;;;21.78;51.61;95500.84;5057080;28;985;-56
2023/05/19 07:48:17;;;;;;;;;;;;;;;21.92;52.37;95487.09;5074583;28;1622;-56
2023/05/19 07:50:44;;;;;;;;;;;;;;;21.99;53.22;95488.69;5074354;28;1290;-54
2023/05/19 07:53:10;;;;;;;;;;;;;;;22.00;52.33;95489.53;5074411;28;1052;-54
2023/05/19 07:55:36;;;;;;;;;;;;;;;22.35;49.41;95492.56;5056776;28;1999;-54
2023/05/19 07:58:03;;;;;;;;;;;;;;;22.59;51.37;95489.97;5074545;28;1314;-54
2023/05/19 08:00:29;;;;;;;;;;;;;;;22.47;48.82;95499.97;5056835;28;970;-54
2023/05/19 08:02:56;;;;;;;;;;;;;;;22.61;50.08;95491.41;5074189;28;1266;-54
2023/05/19 08:05:22;;;;;;;;;;;;;;;22.79;49.76;95492.44;5074042;28;1053;-53
2023/05/19 08:07:48;;;;;;;;;;;;;;;22.77;49.69;95486.41;5074037;28;1052;-54
2023/05/19 08:10:14;;;;;;;;;;;;;;;22.63;50.55;95487.63;5056525;28;1635;-53
2023/05/19 08:12:42;;;;;;;;;;;;;;;22.71;50.98;95485.41;5074210;28;1044;-54
2023/05/19 08:15:10;;;;;;;;;;;;;;;22.51;54.27;95488.38;5074105;28;1991;-54
2023/05/19 08:17:36;;;;;;;;;;;;;;;22.59;50.44;95498.13;5074104;28;978;-54
2023/05/19 08:20:05;;;;;;;;;;;;;;;22.81;48.71;95501.22;5056341;28;1013;-54
2023/05/19 08:22:31;;;;;;;;;;;;;;;23.06;50.38;95495.69;5073801;28;1037;-54
2023/05/19 08:24:57;;;;;;;;;;;;;;;22.86;49.29;95486.91;5056164;28;1016;-55
2023/05/19 08:27:23;;;;;;;;;;;;;;;23.12;50.95;95483.84;5073289;28;1050;-55
2023/05/19 08:29:49;;;;;;;;;;;;;;;23.52;50.02;95480.53;5073614;28;1093;-56
2023/05/19 08:32:16;;;;;;;;;;;;;;;22.90;53.60;95488.13;5073912;28;1013;-55
2023/05/19 08:34:42;;;;;;;;;;;;;;;22.52;54.29;95486.47;5073882;28;1017;-54
2023/05/19 08:37:08;;;;;;;;;;;;;;;23.04;54.18;95478.72;5073516;28;1910;-56
2023/05/19 08:39:34;;;;;;;;;;;;;;;23.47;52.44;95474.94;5073503;28;1208;-56
2023/05/19 08:42:01;;;;;;;;;;;;;;;23.52;51.20;95479.69;5073407;28;1042;-56
2023/05/19 08:44:27;;;;;;;;;;;;;;;23.64;51.19;95474.22;5073366;28;1236;-57
2023/05/19 08:46:54;;;;;;;;;;;;;;;22.59;52.47;95470.88;5073441;28;1096;-58
2023/05/19 08:49:27;;;;;;;;;;;;;;;22.12;52.78;95470.56;5073336;28;1571;-56
2023/05/19 08:52:10;;;;;;;;;;;;;;;22.31;52.89;95474.16;5073570;28;1061;-56
2023/05/19 08:54:40;;;;;;;;;;;;;;;22.75;50.19;95480.34;5073608;28;1068;-56
2023/05/19 08:57:06;;;;;;;;;;;;;;;23.13;53.56;95474.59;5073497;28;1910;-56
2023/05/19 08:59:33;;;;;;;;;;;;;;;23.59;51.22;95475.78;5073353;28;1018;-56
2023/05/19 09:02:00;;;;;;;;;;;;;;;23.86;49.58;95475.34;5073535;28;957;-55
2023/05/19 09:04:27;;;;;;;;;;;;;;;24.00;50.53;95477.84;5073185;28;1050;-56
2023/05/19 09:06:53;;;;;;;;;;;;;;;24.02;50.42;95468.38;5073402;28;978;-56
2023/05/19 09:09:19;;;;;;;;;;;;;;;24.04;47.44;95481.78;5055480;28;1610;-55
2023/05/19 09:11:45;;;;;;;;;;;;;;;24.03;51.68;95461.00;5073444;28;993;-56
2023/05/19 09:14:11;;;;;;;;;;;;;;;24.06;50.27;95453.16;5073105;28;1890;-55
2023/05/19 09:16:38;;;;;;;;;;;;;;;23.97;50.53;95449.97;5073010;28;1989;-56
2023/05/19 09:19:06;;;;;;;;;;;;;;;24.29;52.58;95452.31;5073138;28;1089;-56
2023/05/19 09:21:32;;;;;;;;;;;;;;;23.88;50.58;95453.28;5073230;28;1044;-57
2023/05/19 09:24:05;;;;;;;;;;;;;;;23.81;53.47;95450.69;5073088;28;1045;-56
2023/05/19 09:26:38;;;;;;;;;;;;;;;23.45;50.40;95451.66;5073019;28;1034;-56
2023/05/19 09:29:31;;;;;;;;;;;;;;;23.50;53.36;95443.59;5073153;28;1025;-55
2023/05/19 09:32:00;;;;;;;;;;;;;;;23.78;52.18;95440.19;5070270;28;1291;-56
2023/05/19 09:34:26;;;;;;;;;;;;;;;24.01;49.65;95447.59;5072794;28;1101;-56
2023/05/19 09:36:52;;;;;;;;;;;;;;;24.25;49.99;95447.56;5073009;28;1991;-56
2023/05/19 09:39:20;;;;;;;;;;;;;;;24.28;49.64;95453.41;5075843;28;921;-56
2023/05/19 09:41:49;;;;;;;;;;;;;;;23.71;46.98;95448.53;5077030;28;1040;-56
2023/05/19 09:44:29;;;;;;;;;;;;;;;23.94;51.17;95439.53;5076722;28;1093;-56
2023/05/19 09:46:55;;;;;;;;;;;;;;;24.21;49.40;95447.22;5076834;28;1141;-56
2023/05/19 09:49:31;;;;;;;;;;;;;;;24.13;49.99;95442.97;5076967;28;996;-56
2023/05/19 09:51:58;;;;;;;;;;;;;;;23.95;47.59;95443.91;5076937;28;1071;-55
2023/05/19 09:54:30;;;;;;;;;;;;;;;23.93;49.10;95437.03;5076820;28;981;-55
2023/05/19 09:57:00;;;;;;;;;;;;;;;24.10;51.02;95432.50;5076505;28;1913;-56
2023/05/19 09:59:27;;;;;;;;;;;;;;;23.92;50.09;95441.66;5076417;28;1014;-56
2023/05/19 10:01:54;;;;;;;;;;;;;;;23.94;50.69;95434.06;5076779;28;1005;-55
2023/05/19 10:04:25;;;;;;;;;;;;;;;24.01;51.62;95433.09;5076645;28;1044;-56
2023/05/19 10:06:52;;;;;;;;;;;;;;;24.39;50.92;95423.53;5076349;28;1117;-55
2023/05/19 10:09:23;;;;;;;;;;;;;;;24.65;48.94;95433.13;5076282;28;1529;-56
2023/05/19 10:11:53;;;;;;;;;;;;;;;24.42;49.09;95423.91;5076338;28;1015;-55
2023/05/19 10:14:23;;;;;;;;;;;;;;;24.66;47.46;95416.50;5076186;28;1030;-55
2023/05/19 10:16:50;;;;;;;;;;;;;;;24.44;48.26;95416.28;5076107;28;1906;-56
2023/05/19 10:19:19;;;;;;;;;;;;;;;24.30;48.76;95413.00;5076270;28;1014;-55
2023/05/19 10:21:45;;;;;;;;;;;;;;;24.20;49.14;95401.84;5076197;28;1231;-56
2023/05/19 10:24:11;;;;;;;;;;;;;;;24.44;50.80;95401.81;5076285;28;1001;-55
2023/05/19 10:26:40;;;;;;;;;;;;;;;24.52;48.65;95404.16;5075975;28;1054;-56
2023/05/19 10:29:06;;;;;;;;;;;;;;;24.52;50.32;95412.38;5075985;28;1065;-56
2023/05/19 10:31:32;;;;;;;;;;;;;;;24.39;48.19;95401.69;5076083;28;1053;-55
2023/05/19 10:34:12;;;;;;;;;;;;;;;24.58;48.25;95395.00;5075876;28;1100;-56
2023/05/19 10:36:44;;;;;;;;;;;;;;;24.73;48.72;95398.03;5075878;28;1918;-56
2023/05/19 10:39:15;;;;;;;;;;;;;;;24.41;46.77;95405.00;5076017;28;969;-55
2023/05/19 10:41:44;;;;;;;;;;;;;;;24.12;44.81;95411.25;5075756;28;1113;-55
2023/05/19 10:44:29;;;;;;;;;;;;;;;24.20;48.50;95396.38;5075494;28;1168;-55
2023/05/19 10:46:55;;;;;;;;;;;;;;;24.59;46.90;95404.88;5075776;28;1056;-56
2023/05/19 10:49:22;;;;;;;;;;;;;;;24.79;47.22;95400.84;5075444;28;975;-55
2023/05/19 10:51:48;;;;;;;;;;;;;;;24.83;47.45;95397.38;5075828;28;1341;-56
2023/05/19 10:54:16;;;;;;;;;;;;;;;24.69;46.25;95402.31;5075447;28;1089;-55
2023/05/19 10:56:45;;;;;;;;;;;;;;;24.63;47.44;95397.84;5075409;28;1918;-55
2023/05/19 10:59:43;;;;;;;;;;;;;;;24.77;47.58;95392.06;5075494;28;1026;-55
2023/05/19 11:02:09;;;;;;;;;;;;;;;24.98;45.60;95396.84;5055619;28;1444;-56
2023/05/19 11:04:46;;;;;;;;;;;;;;;24.98;45.94;95390.53;5075573;28;1014;-55
2023/05/19 11:07:23;;;;;;;;;;;;;;;25.01;46.43;95387.31;5075462;28;1019;-56
2023/05/19 11:09:50;;;;;;;;;;;;;;;24.75;46.39;95384.94;5075360;28;1533;-56
2023/05/19 11:12:21;;;;;;;;;;;;;;;24.93;47.30;95378.44;5075502;28;1040;-55
2023/05/19 11:14:47;;;;;;;;;;;;;;;25.05;45.07;95386.56;5075180;28;1034;-55
2023/05/19 11:17:14;;;;;;;;;;;;;;;24.74;38.80;95401.59;5075213;28;1907;-55
2023/05/19 11:19:51;;;;;;;;;;;;;;;24.80;42.90;95388.88;5075170;28;1025;-56
2023/05/19 11:22:17;;;;;;;;;;;;;;;24.96;41.76;95390.78;5075228;28;974;-56
2023/05/19 11:24:51;;;;;;;;;;;;;;;25.03;40.68;95394.19;5075237;28;961;-55
2023/05/19 11:27:25;;;;;;;;;;;;;;;24.66;41.76;95380.97;5074742;28;1029;-55
2023/05/19 11:29:51;;;;;;;;;;;;;;;24.55;42.81;95379.09;5074002;28;993;-56
2023/05/19 11:32:18;;;;;;;;;;;;;;;24.83;43.23;95377.41;5074539;28;1093;-56
2023/05/19 11:34:47;;;;;;;;;;;;;;;24.77;41.95;95375.66;5074446;28;958;-55
2023/05/19 11:37:13;;;;;;;;;;;;;;;23.96;41.54;95371.84;5074321;28;1992;-55
2023/05/19 11:39:39;;;;;;;;;;;;;;;23.86;43.01;95377.06;5074605;28;1032;-55
2023/05/19 11:42:07;;;;;;;;;;;;;;;23.56;42.96;95372.56;5073789;28;1108;-55
2023/05/19 11:44:33;;;;;;;;;;;;;;;23.13;42.03;95378.34;5074308;28;1093;-55
2023/05/19 11:46:59;;;;;;;;;;;;;;;22.92;42.06;95374.22;5074587;28;1037;-55
2023/05/19 11:49:29;;;;;;;;;;;;;;;22.83;42.87;95372.88;5074605;28;1006;-55
2023/05/19 11:51:56;;;;;;;;;;;;;;;22.88;43.82;95364.81;5074303;28;1032;-55
2023/05/19 11:54:28;;;;;;;;;;;;;;;22.80;44.61;95366.84;5074130;28;1026;-55
2023/05/19 11:56:54;;;;;;;;;;;;;;;22.73;44.55;95357.09;5074507;28;1972;-55
2023/05/19 11:59:28;;;;;;;;;;;;;;;22.77;46.80;95358.28;5074413;28;997;-55
2023/05/19 12:01:54;;;;;;;;;;;;;;;22.84;46.36;95367.22;5073874;28;1045;-55
2023/05/19 12:04:20;;;;;;;;;;;;;;;22.68;44.90;95373.31;5074140;28;1016;-55
2023/05/19 12:06:47;;;;;;;;;;;;;;;22.43;52.44;95368.81;5074233;28;1045;-55
2023/05/19 12:09:13;;;;;;;;;;;;;;;21.15;60.44;95381.22;5074118;28;1304;-55
2023/05/19 12:11:39;;;;;;;;;;;;;;;20.85;59.42;95369.13;5074234;28;1247;-55
2023/05/19 12:14:07;;;;;;;;;;;;;;;20.92;61.92;95355.47;5074072;28;1030;-55
2023/05/19 12:16:34;;;;;;;;;;;;;;;21.02;65.04;95352.28;5073793;28;1985;-55
2023/05/19 12:19:00;;;;;;;;;;;;;;;21.03;64.58;95343.06;5073931;28;1151;-55
2023/05/19 12:21:26;;;;;;;;;;;;;;;21.00;66.52;95340.78;5073612;28;1001;-55
2023/05/19 12:23:52;;;;;;;;;;;;;;;21.05;65.82;95339.03;5073714;28;1034;-55
2023/05/19 12:26:21;;;;;;;;;;;;;;;21.12;67.24;95336.28;5073934;28;962;-55
2023/05/19 12:28:49;;;;;;;;;;;;;;;21.25;64.04;95338.88;5073699;28;1136;-55
2023/05/19 12:31:16;;;;;;;;;;;;;;;21.37;61.36;95338.97;5073645;28;970;-55
2023/05/19 12:33:42;;;;;;;;;;;;;;;21.35;60.29;95341.09;5073654;28;1116;-55
2023/05/19 12:36:09;;;;;;;;;;;;;;;21.30;61.77;95342.81;5073351;28;1910;-55
2023/05/19 12:38:38;;;;;;;;;;;;;;;21.33;62.37;95348.66;5073729;28;1041;-55
2023/05/19 12:41:05;;;;;;;;;;;;;;;21.38;61.42;95350.69;5073440;28;1038;-55
2023/05/19 12:43:32;;;;;;;;;;;;;;;21.60;61.88;95335.63;5073310;28;1273;-56
2023/05/19 12:46:08;;;;;;;;;;;;;;;21.79;62.98;95336.47;5073507;28;1008;-55
2023/05/19 12:48:34;;;;;;;;;;;;;;;21.77;61.61;95338.59;5073336;28;1032;-55
2023/05/19 12:51:00;;;;;;;;;;;;;;;21.73;60.61;95342.00;5073249;28;1317;-55
2023/05/19 12:53:27;;;;;;;;;;;;;;;21.73;61.69;95340.09;5073459;28;1006;-56
2023/05/19 12:55:53;;;;;;;;;;;;;;;21.81;60.04;95328.91;5073675;28;1983;-55
2023/05/19 12:58:20;;;;;;;;;;;;;;;22.06;58.31;95330.72;5073325;28;978;-55
2023/05/19 13:00:48;;;;;;;;;;;;;;;22.17;56.65;95324.50;5073270;28;997;-55